Time;durP1;ratioP1;P1;durP2;ratioP2;P2;SDS_P1;SDS_P2;PMS_P1;PMS_P2;Temp;Humidity;BMP_temperature;BMP_pressure;BME280_temperature;BME280_humidity;BME280_pressure;Samples;Min_cycle;Max_cycle;Signal;HPM_P1;HPM_P2
2021/08/26 00:00:32;;;;;;;7.90;7.10;;;18.10;99.90;;;;;;4984214;28;20446;-68
2021/08/26 00:05:43;;;;;;;9.57;7.07;;;17.80;99.90;;;;;;4970787;28;20201;-66
2021/08/26 00:08:09;;;;;;;8.80;7.30;;;17.80;99.90;;;;;;4984329;28;20954;-66
2021/08/26 00:10:36;;;;;;;8.80;7.13;;;17.80;99.90;;;;;;4967249;28;20447;-67
2021/08/26 00:13:06;;;;;;;9.60;6.63;;;17.70;99.90;;;;;;4983328;28;20301;-66
2021/08/26 00:15:32;;;;;;;9.87;6.80;;;17.70;99.90;;;;;;4983699;28;20444;-67
2021/08/26 00:17:58;;;;;;;10.43;6.77;;;17.70;99.90;;;;;;4968206;28;20460;-66
2021/08/26 00:20:25;;;;;;;9.73;6.40;;;17.60;99.90;;;;;;4952897;28;20858;-66
2021/08/26 00:22:51;;;;;;;8.80;6.70;;;17.50;99.90;;;;;;4952244;28;20451;-66
2021/08/26 00:25:17;;;;;;;11.40;7.13;;;17.70;99.90;;;;;;4983882;28;20723;-67
2021/08/26 00:27:43;;;;;;;9.87;7.00;;;17.50;99.90;;;;;;4986705;28;20218;-66
2021/08/26 00:30:09;;;;;;;8.70;6.83;;;17.50;99.90;;;;;;4985150;28;20653;-67
2021/08/26 00:32:35;;;;;;;10.93;6.87;;;17.40;99.90;;;;;;4981990;28;20543;-67
2021/08/26 00:35:00;;;;;;;8.27;7.37;;;17.30;99.90;;;;;;4966932;28;20437;-67
2021/08/26 00:37:29;;;;;;;10.50;6.77;;;17.40;99.90;;;;;;4986567;28;20214;-66
2021/08/26 00:40:04;;;;;;;16.37;7.70;;;17.40;99.90;;;;;;4983138;28;20475;-67
2021/08/26 00:42:30;;;;;;;10.20;7.30;;;17.40;99.90;;;;;;4984246;28;20436;-67
2021/08/26 00:44:56;;;;;;;12.70;7.70;;;17.50;99.90;;;;;;4986144;28;20425;-67
2021/08/26 00:47:23;;;;;;;12.60;7.37;;;17.30;99.90;;;;;;4983456;28;20210;-67
2021/08/26 00:49:55;;;;;;;14.77;7.40;;;17.10;99.90;;;;;;4985488;28;21779;-66
2021/08/26 00:52:22;;;;;;;8.93;7.20;;;16.90;99.90;;;;;;4968421;28;20943;-67
2021/08/26 00:54:47;;;;;;;18.57;7.33;;;16.90;99.90;;;;;;4979475;28;20440;-67
2021/08/26 00:57:13;;;;;;;11.33;7.83;;;17.10;99.90;;;;;;4980401;28;20511;-67
2021/08/26 00:59:39;;;;;;;16.00;6.80;;;17.20;99.90;;;;;;4984516;28;20193;-67
2021/08/26 01:02:37;;;;;;;9.33;6.50;;;17.10;99.90;;;;;;4984198;28;20225;-67
2021/08/26 01:05:24;;;;;;;12.33;7.47;;;17.10;99.90;;;;;;4985525;28;21134;-67
2021/08/26 01:08:07;;;;;;;13.50;7.87;;;16.90;99.90;;;;;;4982332;28;20460;-66
2021/08/26 01:10:35;;;;;;;9.50;7.03;;;17.00;99.90;;;;;;4983745;28;20459;-67
2021/08/26 01:13:04;;;;;;;8.60;6.50;;;17.00;99.90;;;;;;4984797;28;20475;-66
2021/08/26 01:15:29;;;;;;;10.13;7.17;;;17.10;99.90;;;;;;4983276;28;20492;-66
2021/08/26 01:17:56;;;;;;;9.20;7.27;;;17.10;99.90;;;;;;4982041;28;20547;-66
2021/08/26 01:20:22;;;;;;;8.83;6.83;;;17.10;99.90;;;;;;4969287;28;20699;-66
2021/08/26 01:22:48;;;;;;;9.37;7.20;;;16.90;99.90;;;;;;4962932;28;20510;-67
2021/08/26 01:25:17;;;;;;;11.17;7.83;;;17.00;99.90;;;;;;4967478;28;20616;-66
2021/08/26 01:27:52;;;;;;;7.60;6.77;;;16.90;99.90;;;;;;4983339;28;20510;-66
2021/08/26 01:30:21;;;;;;;7.30;6.23;;;16.90;99.90;;;;;;4966136;28;20861;-66
2021/08/26 01:32:49;;;;;;;10.90;7.87;;;17.00;99.90;;;;;;4984874;28;20535;-67
2021/08/26 01:35:15;;;;;;;8.90;6.47;;;16.80;99.90;;;;;;4965824;28;20503;-67
2021/08/26 01:37:41;;;;;;;12.00;7.73;;;16.80;99.90;;;;;;4964936;28;20531;-66
2021/08/26 01:40:08;;;;;;;8.97;6.57;;;16.90;99.90;;;;;;4985681;28;20525;-67
2021/08/26 01:42:35;;;;;;;8.87;6.67;;;16.90;99.90;;;;;;4982092;28;20233;-66
2021/08/26 01:45:02;;;;;;;8.70;6.40;;;17.00;99.90;;;;;;4983985;28;20441;-67
2021/08/26 01:47:28;;;;;;;8.77;6.73;;;16.90;99.90;;;;;;4983481;28;20475;-66
2021/08/26 01:49:54;;;;;;;9.90;7.40;;;16.80;99.90;;;;;;4980338;28;20441;-67
2021/08/26 01:52:23;;;;;;;11.30;7.60;;;16.70;99.90;;;;;;4981739;28;20189;-66
2021/08/26 01:55:04;;;;;;;12.30;6.93;;;16.60;99.90;;;;;;4982032;28;20457;-67
2021/08/26 01:57:31;;;;;;;9.43;6.57;;;16.70;99.90;;;;;;4981840;28;20464;-67
2021/08/26 02:00:03;;;;;;;8.03;6.20;;;16.70;99.90;;;;;;4985399;28;20441;-67
2021/08/26 02:02:29;;;;;;;9.33;7.03;;;16.80;99.90;;;;;;4983129;28;20469;-66
2021/08/26 02:04:54;;;;;;;9.77;6.97;;;16.90;99.90;;;;;;4983033;28;20906;-67
2021/08/26 02:07:20;;;;;;;8.33;7.00;;;16.90;99.90;;;;;;5030517;23;20231;-66
2021/08/26 02:09:46;;;;;;;9.10;7.43;;;16.90;99.90;;;;;;4964236;28;20213;-66
2021/08/26 02:12:11;;;;;;;10.73;7.60;;;16.90;99.90;;;;;;4980168;28;20201;-67
2021/08/26 02:14:37;;;;;;;10.20;7.30;;;16.90;99.90;;;;;;4983400;28;20218;-67
2021/08/26 02:17:03;;;;;;;10.97;7.03;;;16.90;99.90;;;;;;4971387;28;20206;-67
2021/08/26 02:19:28;;;;;;;14.23;7.30;;;17.00;99.90;;;;;;4962638;28;20253;-66
2021/08/26 02:21:57;;;;;;;9.67;7.57;;;17.00;99.90;;;;;;4937758;28;20443;-67
2021/08/26 02:24:23;;;;;;;9.97;7.20;;;17.00;99.90;;;;;;4943705;28;20213;-67
2021/08/26 02:26:48;;;;;;;12.37;8.40;;;17.10;99.90;;;;;;4963038;28;20826;-66
2021/08/26 02:29:14;;;;;;;9.97;7.47;;;17.10;99.90;;;;;;4963744;28;20706;-66
2021/08/26 02:31:40;;;;;;;9.50;7.60;;;17.00;99.90;;;;;;4945151;28;20768;-66
2021/08/26 02:34:06;;;;;;;11.03;7.87;;;17.00;99.90;;;;;;4963172;28;20465;-66
2021/08/26 02:36:32;;;;;;;11.97;8.00;;;16.80;99.90;;;;;;4959451;28;20469;-67
2021/08/26 02:38:57;;;;;;;11.70;7.30;;;16.90;99.90;;;;;;4965155;28;20195;-66
2021/08/26 02:41:23;;;;;;;11.00;7.40;;;16.90;99.90;;;;;;4962362;28;20204;-67
2021/08/26 02:43:50;;;;;;;11.67;7.27;;;16.50;99.90;;;;;;4962265;28;20602;-66
2021/08/26 02:46:15;;;;;;;10.27;7.30;;;16.60;99.90;;;;;;4948985;28;20205;-66
2021/08/26 02:48:41;;;;;;;10.10;6.43;;;16.60;99.90;;;;;;4961474;28;20447;-66
2021/08/26 02:51:07;;;;;;;8.60;6.57;;;16.50;99.90;;;;;;4962500;28;20404;-67
2021/08/26 02:53:33;;;;;;;9.53;7.27;;;16.50;99.90;;;;;;4963370;28;21133;-66
2021/08/26 02:55:59;;;;;;;11.27;6.73;;;16.50;99.90;;;;;;4922826;28;20453;-66
2021/08/26 02:58:25;;;;;;;8.37;6.67;;;16.60;99.90;;;;;;4967979;28;20686;-66
2021/08/26 03:00:51;;;;;;;9.83;7.00;;;16.60;99.90;;;;;;4966756;28;20179;-68
2021/08/26 03:03:16;;;;;;;9.90;6.70;;;16.50;99.90;;;;;;4962765;28;20434;-67
2021/08/26 03:05:42;;;;;;;8.40;6.23;;;16.60;99.90;;;;;;4964548;28;20698;-66
2021/08/26 03:08:08;;;;;;;9.10;6.83;;;16.50;99.90;;;;;;4949447;28;20488;-66
2021/08/26 03:10:52;;;;;;;9.83;6.90;;;16.40;99.90;;;;;;4964904;28;20246;-67
2021/08/26 03:13:17;;;;;;;8.77;6.30;;;16.30;99.90;;;;;;4967380;28;20568;-67
2021/08/26 03:15:43;;;;;;;10.03;6.13;;;16.40;99.90;;;;;;4965706;28;20529;-66
2021/08/26 03:18:09;;;;;;;8.63;7.00;;;16.40;99.90;;;;;;4947071;28;20592;-66
2021/08/26 03:20:38;;;;;;;9.57;7.07;;;16.40;99.90;;;;;;4967249;28;20661;-66
2021/08/26 03:23:04;;;;;;;9.00;6.50;;;16.40;99.90;;;;;;4963990;28;20206;-66
2021/08/26 03:25:30;;;;;;;8.60;6.30;;;16.40;99.90;;;;;;4950326;28;20449;-67
2021/08/26 03:27:55;;;;;;;12.47;8.40;;;16.40;99.90;;;;;;4966366;28;21845;-66
2021/08/26 03:30:21;;;;;;;9.23;7.03;;;16.40;99.90;;;;;;4965962;28;20198;-67
2021/08/26 03:32:53;;;;;;;9.50;7.13;;;16.40;99.90;;;;;;4949480;28;20381;-66
2021/08/26 03:35:19;;;;;;;8.77;7.23;;;16.40;99.90;;;;;;4964108;28;20617;-66
2021/08/26 03:37:44;;;;;;;11.20;7.37;;;16.40;99.90;;;;;;4964931;28;20457;-67
2021/08/26 03:40:11;;;;;;;8.27;7.37;;;16.50;99.90;;;;;;4967813;28;20183;-66
2021/08/26 03:42:36;;;;;;;9.40;7.07;;;16.50;99.90;;;;;;4965821;28;20306;-66
2021/08/26 03:45:03;;;;;;;9.50;7.20;;;16.50;99.90;;;;;;4962544;28;20560;-67
2021/08/26 03:47:29;;;;;;;13.47;8.80;;;16.30;99.90;;;;;;4967265;28;20305;-66
2021/08/26 03:49:55;;;;;;;10.03;7.73;;;16.50;99.90;;;;;;4965579;28;20769;-66
2021/08/26 03:52:21;;;;;;;9.00;7.20;;;16.60;99.90;;;;;;4965530;28;20814;-61
2021/08/26 03:54:46;;;;;;;12.73;7.20;;;16.40;99.90;;;;;;4934432;28;20294;-61
2021/08/26 03:57:12;;;;;;;10.27;7.50;;;16.50;99.90;;;;;;4962916;28;20539;-61
2021/08/26 03:59:37;;;;;;;10.70;7.33;;;16.40;99.90;;;;;;4968750;28;20182;-61
2021/08/26 04:02:03;;;;;;;12.90;7.80;;;16.40;99.90;;;;;;4964771;28;20779;-61
2021/08/26 04:04:29;;;;;;;8.60;6.63;;;16.40;99.90;;;;;;4963838;28;20191;-61
2021/08/26 04:06:54;;;;;;;18.23;7.87;;;16.40;99.90;;;;;;4966788;28;20300;-61
2021/08/26 04:09:23;;;;;;;10.47;7.53;;;16.20;99.90;;;;;;4948490;28;20306;-61
2021/08/26 04:11:49;;;;;;;10.00;8.07;;;16.20;99.90;;;;;;4948194;28;20228;-61
2021/08/26 04:14:14;;;;;;;9.60;7.10;;;16.10;99.90;;;;;;4966930;28;20839;-61
2021/08/26 04:16:40;;;;;;;10.67;7.60;;;16.10;99.90;;;;;;4963766;28;20802;-61
2021/08/26 04:19:05;;;;;;;8.97;7.00;;;16.00;99.90;;;;;;4963160;28;20682;-61
2021/08/26 04:21:32;;;;;;;8.13;6.73;;;16.10;99.90;;;;;;4965006;28;20301;-61
2021/08/26 04:23:58;;;;;;;11.00;7.17;;;16.10;99.90;;;;;;4963711;28;20257;-61
2021/08/26 04:26:24;;;;;;;9.77;7.77;;;15.90;99.90;;;;;;4939595;28;21063;-61
2021/08/26 04:28:50;;;;;;;9.87;7.47;;;15.90;99.90;;;;;;4966242;28;20434;-61
2021/08/26 04:31:41;;;;;;;11.60;7.50;;;16.00;99.90;;;;;;4962576;28;20189;-61
2021/08/26 04:34:06;;;;;;;9.10;7.80;;;16.00;99.90;;;;;;4964632;28;20476;-61
2021/08/26 04:36:32;;;;;;;9.77;7.37;;;15.90;99.90;;;;;;4967682;28;20454;-61
2021/08/26 04:38:58;;;;;;;11.03;7.73;;;15.90;99.90;;;;;;4941853;28;20190;-61
2021/08/26 04:41:24;;;;;;;8.97;7.20;;;15.90;99.90;;;;;;4944601;28;20797;-61
2021/08/26 04:43:51;;;;;;;9.63;8.60;;;15.90;99.90;;;;;;4964293;28;20442;-61
2021/08/26 04:46:16;;;;;;;9.10;7.33;;;15.90;99.90;;;;;;4963244;28;20210;-61
2021/08/26 04:48:42;;;;;;;11.67;8.93;;;15.90;99.90;;;;;;4947028;28;20444;-61
2021/08/26 04:51:08;;;;;;;11.37;8.50;;;15.90;99.90;;;;;;4962490;28;20578;-61
2021/08/26 04:53:33;;;;;;;10.10;7.70;;;15.90;99.90;;;;;;4964414;28;20556;-61
2021/08/26 04:55:59;;;;;;;11.13;8.20;;;16.00;99.90;;;;;;4943797;28;20198;-61
2021/08/26 04:58:25;;;;;;;10.43;8.00;;;16.10;99.90;;;;;;4946972;28;20195;-61
2021/08/26 05:00:50;;;;;;;9.57;7.80;;;16.10;99.90;;;;;;4968136;28;20570;-61
2021/08/26 05:03:16;;;;;;;11.47;8.73;;;16.00;99.90;;;;;;4965959;28;20318;-61
2021/08/26 05:05:42;;;;;;;10.43;7.97;;;15.90;99.90;;;;;;4964162;28;20676;-61
2021/08/26 05:08:08;;;;;;;11.03;8.10;;;15.80;99.90;;;;;;4962689;28;20234;-61
2021/08/26 05:10:37;;;;;;;15.47;8.77;;;15.90;99.90;;;;;;4933107;28;20248;-61
2021/08/26 05:13:02;;;;;;;14.30;8.43;;;15.90;99.90;;;;;;4964048;28;20462;-61
2021/08/26 05:15:28;;;;;;;11.43;8.50;;;16.00;99.90;;;;;;4963332;28;20799;-63
2021/08/26 05:17:53;;;;;;;10.63;9.00;;;16.10;99.90;;;;;;4960410;28;20244;-62
2021/08/26 05:20:19;;;;;;;11.30;8.40;;;16.10;99.90;;;;;;4962737;28;20187;-61
2021/08/26 05:22:45;;;;;;;9.77;8.63;;;16.10;99.90;;;;;;4949446;28;20598;-61
2021/08/26 05:25:11;;;;;;;15.70;8.03;;;16.20;99.90;;;;;;4961556;28;20190;-61
2021/08/26 05:27:37;;;;;;;11.33;8.93;;;16.20;99.90;;;;;;4944852;28;20590;-61
2021/08/26 05:30:03;;;;;;;9.97;8.07;;;16.20;99.90;;;;;;4947061;28;20432;-61
2021/08/26 05:32:29;;;;;;;9.67;7.83;;;16.10;99.90;;;;;;4963242;28;20426;-62
2021/08/26 05:34:54;;;;;;;12.07;8.63;;;16.10;99.90;;;;;;4964128;28;20473;-61
2021/08/26 05:37:20;;;;;;;11.13;8.63;;;16.20;99.90;;;;;;4962541;28;20225;-61
2021/08/26 05:39:58;;;;;;;12.17;9.07;;;16.10;99.90;;;;;;4964992;28;20205;-61
2021/08/26 05:42:23;;;;;;;18.03;10.03;;;16.10;99.90;;;;;;4963600;28;20199;-62
2021/08/26 05:44:49;;;;;;;9.53;8.53;;;16.00;99.90;;;;;;4961717;28;20532;-61
2021/08/26 05:47:15;;;;;;;10.30;8.63;;;16.00;99.90;;;;;;4963543;28;20218;-61
2021/08/26 05:49:40;;;;;;;10.90;7.93;;;15.90;99.90;;;;;;4960841;28;20372;-61
2021/08/26 05:52:06;;;;;;;12.20;10.00;;;16.00;99.90;;;;;;4962541;28;20230;-61
2021/08/26 05:54:32;;;;;;;12.50;8.90;;;15.90;99.90;;;;;;4965055;28;20214;-61
2021/08/26 05:56:59;;;;;;;11.50;9.13;;;16.00;99.90;;;;;;4936275;28;20202;-61
2021/08/26 05:59:25;;;;;;;13.73;9.40;;;15.90;99.90;;;;;;4963360;28;20450;-61
2021/08/26 06:01:52;;;;;;;17.33;9.90;;;16.00;99.90;;;;;;4964005;28;20434;-61
2021/08/26 06:04:17;;;;;;;14.03;9.80;;;16.00;99.90;;;;;;4959202;28;20451;-61
2021/08/26 06:06:43;;;;;;;10.77;8.73;;;15.90;99.90;;;;;;4944713;28;20483;-61
2021/08/26 06:09:09;;;;;;;8.73;7.83;;;16.00;99.90;;;;;;4960818;28;20198;-61
2021/08/26 06:11:35;;;;;;;11.70;9.33;;;16.00;99.90;;;;;;4961047;28;20249;-60
2021/08/26 06:14:01;;;;;;;11.87;9.47;;;16.00;99.90;;;;;;4961310;28;20469;-61
2021/08/26 06:16:27;;;;;;;12.73;9.37;;;16.10;99.90;;;;;;4932237;28;20197;-60
2021/08/26 06:18:53;;;;;;;13.80;8.93;;;16.00;99.90;;;;;;4948126;28;20513;-59
2021/08/26 06:21:18;;;;;;;10.60;9.07;;;16.00;99.90;;;;;;4944986;28;20186;-60
2021/08/26 06:23:44;;;;;;;13.40;8.90;;;15.90;99.90;;;;;;4944347;28;20688;-59
2021/08/26 06:26:10;;;;;;;10.73;9.30;;;15.90;99.90;;;;;;4965333;28;20298;-60
2021/08/26 06:28:36;;;;;;;13.33;9.80;;;15.90;99.90;;;;;;4945977;28;20186;-60
2021/08/26 06:31:02;;;;;;;11.97;10.07;;;15.80;99.90;;;;;;4963399;28;20438;-60
2021/08/26 06:33:27;;;;;;;13.37;9.13;;;15.80;99.90;;;;;;4968890;28;20207;-60
2021/08/26 06:35:53;;;;;;;11.50;9.13;;;15.90;99.90;;;;;;4963541;28;20187;-60
2021/08/26 06:38:19;;;;;;;11.20;9.10;;;16.10;99.90;;;;;;4964469;28;20258;-60
2021/08/26 06:40:45;;;;;;;11.67;8.70;;;16.10;99.90;;;;;;4957280;28;20679;-60
2021/08/26 06:43:11;;;;;;;10.23;9.03;;;16.20;99.90;;;;;;4947714;28;21601;-60
2021/08/26 06:45:36;;;;;;;11.20;9.30;;;16.10;99.90;;;;;;4958648;28;20273;-61
2021/08/26 06:48:03;;;;;;;13.30;10.07;;;16.20;99.90;;;;;;4939605;28;20286;-61
2021/08/26 06:50:28;;;;;;;9.33;8.17;;;16.20;99.90;;;;;;4963538;28;20594;-61
2021/08/26 06:52:54;;;;;;;13.77;10.07;;;16.20;99.90;;;;;;4965742;28;20434;-61
2021/08/26 06:55:20;;;;;;;12.47;9.50;;;16.30;99.90;;;;;;4949854;28;20570;-61
2021/08/26 06:57:49;;;;;;;12.90;8.23;;;16.20;99.90;;;;;;4959228;28;20341;-61
2021/08/26 07:00:15;;;;;;;11.37;8.57;;;16.30;99.90;;;;;;4967782;28;20182;-66
2021/08/26 07:02:44;;;;;;;11.67;8.90;;;16.10;99.90;;;;;;4967055;28;21996;-67
2021/08/26 07:05:11;;;;;;;16.90;9.30;;;16.20;99.90;;;;;;4952494;28;21061;-67
2021/08/26 07:07:37;;;;;;;13.27;8.77;;;16.20;99.90;;;;;;4944255;28;20480;-66
2021/08/26 07:10:04;;;;;;;9.43;8.43;;;16.20;99.90;;;;;;4965288;28;20529;-67
2021/08/26 07:12:39;;;;;;;10.27;8.40;;;16.20;99.90;;;;;;4969368;28;20216;-60
2021/08/26 07:15:05;;;;;;;10.60;9.03;;;16.20;99.90;;;;;;4944128;28;20516;-67
2021/08/26 07:17:31;;;;;;;12.10;9.30;;;16.00;99.90;;;;;;4966258;28;20468;-66
2021/08/26 07:19:57;;;;;;;11.53;8.87;;;16.00;99.90;;;;;;4969405;28;20805;-67
2021/08/26 07:22:23;;;;;;;13.90;9.30;;;16.00;99.90;;;;;;4967071;28;20199;-67
2021/08/26 07:24:48;;;;;;;11.40;9.17;;;16.00;99.90;;;;;;4966218;28;20237;-67
2021/08/26 07:27:14;;;;;;;11.73;9.80;;;16.00;99.90;;;;;;4968856;28;20222;-60
2021/08/26 07:29:40;;;;;;;12.53;11.07;;;16.00;99.90;;;;;;4965664;28;20297;-66
2021/08/26 07:32:06;;;;;;;12.10;9.03;;;16.00;99.90;;;;;;4965042;28;20565;-66
2021/08/26 07:34:32;;;;;;;11.13;10.00;;;15.90;99.90;;;;;;4944417;28;20941;-60
2021/08/26 07:36:57;;;;;;;13.07;9.90;;;15.90;99.90;;;;;;4959079;28;20466;-67
2021/08/26 07:39:23;;;;;;;12.63;10.50;;;15.90;99.90;;;;;;4968198;28;20282;-66
2021/08/26 07:41:50;;;;;;;17.57;10.97;;;15.90;99.90;;;;;;4963507;28;20325;-66
2021/08/26 07:44:16;;;;;;;22.50;10.40;;;16.00;99.90;;;;;;4944375;28;21208;-60
2021/08/26 07:46:42;;;;;;;12.80;10.40;;;15.90;99.90;;;;;;4966086;28;20552;-66
2021/08/26 07:49:09;;;;;;;14.30;10.73;;;16.00;99.90;;;;;;4945445;28;20257;-68
2021/08/26 07:51:34;;;;;;;14.27;10.27;;;15.90;99.90;;;;;;4966080;28;20904;-62
2021/08/26 07:54:00;;;;;;;13.90;11.00;;;16.00;99.90;;;;;;4966548;28;20608;-67
2021/08/26 07:56:26;;;;;;;17.90;11.20;;;16.00;99.90;;;;;;4930388;28;20704;-60
2021/08/26 07:58:52;;;;;;;13.43;11.27;;;16.00;99.90;;;;;;4964845;28;20878;-62
2021/08/26 08:01:21;;;;;;;13.80;10.47;;;15.90;99.90;;;;;;4945936;28;20186;-62
2021/08/26 08:03:46;;;;;;;13.33;11.30;;;16.00;99.90;;;;;;4963338;28;20450;-62
2021/08/26 08:06:16;;;;;;;14.90;11.87;;;15.90;99.90;;;;;;4968104;28;20445;-62
2021/08/26 08:08:42;;;;;;;13.30;10.70;;;15.90;99.90;;;;;;4951010;28;20206;-62
2021/08/26 08:11:07;;;;;;;16.03;11.70;;;15.90;99.90;;;;;;4963645;28;20445;-63
2021/08/26 08:13:35;;;;;;;15.23;11.30;;;16.00;99.90;;;;;;4967446;28;20853;-62
2021/08/26 08:16:04;;;;;;;15.73;10.80;;;16.00;99.90;;;;;;4935501;28;20470;-60
2021/08/26 08:18:32;;;;;;;13.20;11.80;;;16.00;99.90;;;;;;4949782;28;20434;-62
2021/08/26 08:20:58;;;;;;;13.70;11.17;;;16.10;99.90;;;;;;4963363;28;20481;-62
2021/08/26 08:23:24;;;;;;;16.80;11.83;;;16.00;99.90;;;;;;4963252;28;20474;-60
2021/08/26 08:25:49;;;;;;;14.17;11.90;;;15.90;99.90;;;;;;4947598;28;20696;-61
2021/08/26 08:28:18;;;;;;;15.27;11.73;;;16.00;99.90;;;;;;4965236;28;20218;-60
2021/08/26 08:30:44;;;;;;;13.23;11.63;;;16.00;99.90;;;;;;4943323;28;20538;-66
2021/08/26 08:33:10;;;;;;;14.63;11.60;;;16.00;99.90;;;;;;4964984;28;20477;-61
2021/08/26 08:35:37;;;;;;;13.27;11.50;;;15.90;99.90;;;;;;4964776;28;20446;-60
2021/08/26 08:38:03;;;;;;;13.97;11.97;;;15.90;99.90;;;;;;4965448;28;20504;-60
2021/08/26 08:40:29;;;;;;;14.20;12.70;;;15.90;99.90;;;;;;4965221;28;20504;-60
2021/08/26 08:42:54;;;;;;;13.17;10.27;;;16.00;99.90;;;;;;4965023;28;20925;-60
2021/08/26 08:45:20;;;;;;;13.80;11.37;;;16.00;99.90;;;;;;4967322;28;20496;-60
2021/08/26 08:47:50;;;;;;;11.87;10.17;;;16.00;99.90;;;;;;4946785;28;20212;-66
2021/08/26 08:50:16;;;;;;;14.40;10.67;;;16.00;99.90;;;;;;4947574;28;20858;-66
2021/08/26 08:52:42;;;;;;;12.30;10.50;;;16.00;99.90;;;;;;4966160;28;20430;-66
2021/08/26 08:55:10;;;;;;;14.10;11.03;;;16.00;99.90;;;;;;4963215;28;20446;-66
2021/08/26 08:57:40;;;;;;;15.60;11.13;;;16.00;99.90;;;;;;4962946;28;20640;-67
2021/08/26 09:00:16;;;;;;;11.37;9.70;;;16.00;99.90;;;;;;4942068;28;20439;-66
2021/08/26 09:02:41;;;;;;;11.03;8.97;;;15.90;99.90;;;;;;4945609;28;20525;-61
2021/08/26 09:05:07;;;;;;;9.80;8.80;;;15.80;99.90;;;;;;4962948;28;20549;-61
2021/08/26 09:07:35;;;;;;;11.67;10.47;;;15.80;99.90;;;;;;4962488;28;20560;-60
2021/08/26 09:10:01;;;;;;;9.67;8.60;;;15.70;99.90;;;;;;4963975;28;20217;-61
2021/08/26 09:12:42;;;;;;;10.03;9.03;;;15.80;99.90;;;;;;4958202;28;20628;-61
2021/08/26 09:15:09;;;;;;;10.50;9.50;;;15.70;99.90;;;;;;4961386;28;20450;-60
2021/08/26 09:17:35;;;;;;;9.83;7.80;;;15.70;99.90;;;;;;4961107;28;20461;-60
2021/08/26 09:20:10;;;;;;;9.30;7.57;;;15.80;99.90;;;;;;4963317;28;20430;-61
2021/08/26 09:22:36;;;;;;;9.27;7.60;;;15.80;99.90;;;;;;4959924;28;20445;-61
2021/08/26 09:25:03;;;;;;;9.13;8.13;;;15.90;99.90;;;;;;4966077;28;20449;-60
2021/08/26 09:27:32;;;;;;;10.00;8.70;;;15.80;99.90;;;;;;4961890;28;21284;-61
2021/08/26 09:30:16;;;;;;;9.53;8.60;;;15.90;99.90;;;;;;4961445;28;21071;-60
2021/08/26 09:32:41;;;;;;;8.60;7.17;;;16.10;99.90;;;;;;4946920;28;20454;-60
2021/08/26 09:35:11;;;;;;;9.50;7.70;;;16.30;99.90;;;;;;4963200;28;20478;-60
2021/08/26 09:37:44;;;;;;;8.50;7.60;;;16.40;99.90;;;;;;4963133;28;20253;-60
2021/08/26 09:40:12;;;;;;;6.87;6.17;;;16.50;99.90;;;;;;4942533;28;20446;-60
2021/08/26 09:42:38;;;;;;;7.57;6.70;;;16.60;99.90;;;;;;4947064;28;20438;-60
2021/08/26 09:45:18;;;;;;;7.43;6.73;;;16.60;99.90;;;;;;4926040;28;20444;-60
2021/08/26 09:48:04;;;;;;;7.30;6.60;;;16.60;99.90;;;;;;4927029;28;20500;-62
2021/08/26 09:50:43;;;;;;;6.77;5.90;;;16.50;99.90;;;;;;4946350;28;20878;-61
2021/08/26 09:53:10;;;;;;;6.73;6.00;;;16.50;99.90;;;;;;4961272;28;20551;-61
2021/08/26 09:55:48;;;;;;;6.40;5.80;;;16.40;99.90;;;;;;4965274;28;20513;-61
2021/08/26 09:58:15;;;;;;;7.10;6.40;;;16.30;99.90;;;;;;4962852;28;20481;-61
2021/08/26 10:00:41;;;;;;;7.80;7.10;;;16.30;99.90;;;;;;4961867;28;20426;-61
2021/08/26 10:03:12;;;;;;;8.27;6.73;;;16.50;99.90;;;;;;4946376;28;20814;-61
2021/08/26 10:05:39;;;;;;;7.80;7.00;;;16.60;99.90;;;;;;4951700;28;20257;-61
2021/08/26 10:08:06;;;;;;;8.67;7.77;;;16.40;99.90;;;;;;4966235;28;20516;-61
2021/08/26 10:10:33;;;;;;;7.80;7.10;;;16.50;99.90;;;;;;4968021;28;20457;-61
2021/08/26 10:13:02;;;;;;;8.33;7.50;;;16.40;99.90;;;;;;4968287;28;20510;-60
2021/08/26 10:15:28;;;;;;;9.17;7.67;;;16.60;99.90;;;;;;4950277;28;20979;-60
2021/08/26 10:17:54;;;;;;;9.50;7.87;;;16.60;99.90;;;;;;4950659;28;20484;-60
2021/08/26 10:20:22;;;;;;;9.07;6.93;;;16.80;99.90;;;;;;4966130;28;20520;-60
2021/08/26 10:22:49;;;;;;;6.93;6.30;;;16.90;99.90;;;;;;4952007;28;20437;-60
2021/08/26 10:25:16;;;;;;;7.47;6.77;;;17.00;99.90;;;;;;4968691;28;20469;-60
2021/08/26 10:27:45;;;;;;;6.77;6.10;;;17.10;99.90;;;;;;4946799;28;20450;-60
2021/08/26 10:30:36;;;;;;;7.10;6.40;;;17.20;99.90;;;;;;4952079;28;20446;-67
2021/08/26 10:33:16;;;;;;;8.07;6.53;;;17.30;99.90;;;;;;4953649;28;20965;-67
2021/08/26 10:35:54;;;;;;;5.77;5.27;;;17.40;99.90;;;;;;4964598;28;20506;-67
2021/08/26 10:38:20;;;;;;;7.77;5.70;;;17.50;99.90;;;;;;4971123;28;20446;-60
2021/08/26 10:40:46;;;;;;;5.70;5.20;;;17.50;99.90;;;;;;4968558;28;20437;-60
2021/08/26 10:43:36;;;;;;;6.30;5.70;;;17.60;99.90;;;;;;4964821;28;20456;-61
2021/08/26 10:46:05;;;;;;;6.67;5.40;;;17.60;99.90;;;;;;4944059;28;20449;-60
2021/08/26 10:48:31;;;;;;;5.90;5.30;;;17.80;99.90;;;;;;4965557;28;20474;-61
2021/08/26 10:51:08;;;;;;;5.27;4.60;;;17.70;99.90;;;;;;4966428;28;21152;-60
2021/08/26 10:53:36;;;;;;;5.50;5.00;;;17.60;99.90;;;;;;4963201;28;20474;-63
2021/08/26 10:56:29;;;;;;;4.33;3.93;;;17.70;99.90;;;;;;4965122;28;20744;-67
2021/08/26 10:58:57;;;;;;;4.97;4.50;;;17.90;99.90;;;;;;4965704;28;20445;-67
2021/08/26 11:01:39;;;;;;;5.73;4.90;;;18.10;99.90;;;;;;4963617;28;20465;-66
2021/08/26 11:04:06;;;;;;;5.50;5.00;;;18.10;99.90;;;;;;4967522;28;20441;-58
2021/08/26 11:06:37;;;;;;;6.70;5.00;;;18.10;99.90;;;;;;4965155;28;20879;-58
2021/08/26 11:09:11;;;;;;;5.17;4.67;;;18.10;99.90;;;;;;4960957;28;20454;-64
2021/08/26 11:11:40;;;;;;;6.33;5.43;;;18.20;99.90;;;;;;4965018;28;20512;-64
2021/08/26 11:14:06;;;;;;;7.50;6.70;;;18.10;99.90;;;;;;4964067;28;21006;-64
2021/08/26 11:16:46;;;;;;;7.97;6.10;;;18.20;99.90;;;;;;4965681;28;20450;-59
2021/08/26 11:19:12;;;;;;;6.50;5.50;;;18.30;99.90;;;;;;4949709;28;20194;-59
2021/08/26 11:24:19;;;;;;;9.10;6.30;;;18.50;99.90;;;;;;4968359;28;20190;-59
2021/08/26 11:27:06;;;;;;;6.50;5.90;;;18.60;99.90;;;;;;4963295;28;20458;-59
2021/08/26 11:29:33;;;;;;;7.00;6.30;;;18.70;99.90;;;;;;4963714;28;20512;-59
2021/08/26 11:32:02;;;;;;;6.77;6.13;;;18.70;99.90;;;;;;4968588;28;20418;-60
2021/08/26 11:34:46;;;;;;;6.70;6.07;;;18.70;99.90;;;;;;4964366;28;20476;-58
2021/08/26 11:37:17;;;;;;;7.10;6.40;;;18.80;99.90;;;;;;4961709;28;20557;-59
2021/08/26 11:40:02;;;;;;;6.73;6.13;;;18.90;99.90;;;;;;4966601;28;20767;-58
2021/08/26 11:42:28;;;;;;;8.40;5.73;;;18.90;99.90;;;;;;4966499;28;20433;-59
2021/08/26 11:45:06;;;;;;;7.67;6.20;;;19.10;99.90;;;;;;4963160;28;20435;-59
2021/08/26 11:47:33;;;;;;;7.87;5.40;;;19.00;99.90;;;;;;4963993;28;20543;-59
2021/08/26 11:50:19;;;;;;;6.30;5.73;;;19.10;99.90;;;;;;4961094;28;20444;-58
2021/08/26 11:52:57;;;;;;;8.87;5.60;;;19.10;99.90;;;;;;4962273;28;21003;-59
2021/08/26 11:55:24;;;;;;;7.80;6.13;;;19.40;99.90;;;;;;4965953;28;20430;-59
2021/08/26 11:58:01;;;;;;;7.07;5.40;;;19.40;99.90;;;;;;4962833;28;20852;-59
2021/08/26 12:00:27;;;;;;;6.10;5.60;;;19.50;99.90;;;;;;4948051;28;20938;-65
2021/08/26 12:02:58;;;;;;;5.70;5.10;;;19.70;99.90;;;;;;4969328;28;20434;-60
2021/08/26 12:05:25;;;;;;;23.27;6.30;;;20.00;99.90;;;;;;4962554;28;20442;-59
2021/08/26 12:07:52;;;;;;;5.03;4.53;;;20.20;99.90;;;;;;4964411;28;20964;-59
2021/08/26 12:10:22;;;;;;;7.47;5.03;;;20.60;99.90;;;;;;4964424;28;20428;-59
2021/08/26 12:12:56;;;;;;;5.87;5.27;;;21.40;99.90;;;;;;4951325;28;20497;-59
2021/08/26 12:15:29;;;;;;;5.07;4.57;;;22.00;99.90;;;;;;4966643;28;20467;-59
2021/08/26 12:17:58;;;;;;;5.83;5.23;;;22.30;99.90;;;;;;4947961;28;20545;-64
2021/08/26 12:20:25;;;;;;;6.67;6.07;;;22.50;99.90;;;;;;4945742;28;20446;-64
2021/08/26 12:22:51;;;;;;;5.33;4.70;;;22.50;99.90;;;;;;4964716;28;20821;-65
2021/08/26 12:25:33;;;;;;;5.83;5.00;;;22.80;99.90;;;;;;4963709;28;20434;-64
2021/08/26 12:28:01;;;;;;;4.53;4.13;;;23.20;99.90;;;;;;4960876;28;20537;-64
2021/08/26 12:30:33;;;;;;;4.77;4.20;;;23.60;99.90;;;;;;4965283;28;21236;-58
2021/08/26 12:33:06;;;;;;;4.03;3.63;;;23.80;99.90;;;;;;4961567;28;20442;-58
2021/08/26 12:35:43;;;;;;;4.60;4.20;;;24.30;99.90;;;;;;4964216;28;20437;-58
2021/08/26 12:38:10;;;;;;;6.07;4.63;;;24.60;99.90;;;;;;4964757;28;20500;-58
2021/08/26 12:40:53;;;;;;;5.00;4.50;;;24.00;99.90;;;;;;4948579;28;20448;-59
2021/08/26 12:43:23;;;;;;;4.57;3.97;;;24.20;99.90;;;;;;4966023;28;20442;-65
2021/08/26 12:45:49;;;;;;;4.60;4.10;;;23.90;99.90;;;;;;4964460;28;20437;-66
2021/08/26 12:48:27;;;;;;;4.60;4.20;;;23.20;99.90;;;;;;4963132;28;20449;-66
2021/08/26 12:51:25;;;;;;;5.90;4.73;;;22.90;99.90;;;;;;4964633;28;20846;-66